Time;durP1;ratioP1;P1;durP2;ratioP2;P2;SDS_P1;SDS_P2;PMS_P1;PMS_P2;Temp;Humidity;BMP_temperature;BMP_pressure;BME280_temperature;BME280_humidity;BME280_pressure;Samples;Min_cycle;Max_cycle;Signal;HPM_P1;HPM_P2
2022/03/06 00:01:43;;;;;;;0.60;0.60;;;;;;;;;;1832957;77;26855;-47
2022/03/06 00:04:10;;;;;;;0.47;0.47;;;;;;;;;;1838586;76;26722;-49
2022/03/06 00:06:38;;;;;;;0.95;0.60;;;;;;;;;;1831540;76;26263;-47
2022/03/06 00:09:05;;;;;;;0.60;0.60;;;;;;;;;;1851963;76;26278;-48
2022/03/06 00:11:32;;;;;;;0.60;0.60;;;;;;;;;;1845025;76;26236;-45
2022/03/06 00:13:59;;;;;;;0.55;0.55;;;;;;;;;;1848332;76;26731;-51
2022/03/06 00:16:27;;;;;;;0.50;0.50;;;;;;;;;;1838237;76;26789;-47
2022/03/06 00:18:54;;;;;;;0.50;0.50;;;;;;;;;;1851674;77;26267;-46
2022/03/06 00:21:21;;;;;;;0.40;0.40;;;;;;;;;;1834884;76;26294;-48
2022/03/06 00:23:49;;;;;;;0.50;0.50;;;;;;;;;;1837818;77;26266;-46
2022/03/06 00:26:16;;;;;;;0.60;0.60;;;;;;;;;;1829852;76;26256;-46
2022/03/06 00:28:43;;;;;;;0.50;0.50;;;;;;;;;;1851790;76;26314;-47
2022/03/06 00:31:12;;;;;;;0.70;0.70;;;;;;;;;;1851817;77;26259;-48
2022/03/06 00:33:39;;;;;;;0.50;0.50;;;;;;;;;;1827392;76;26286;-46
2022/03/06 00:36:07;;;;;;;0.53;0.53;;;;;;;;;;1838439;77;26725;-47
2022/03/06 00:38:35;;;;;;;0.50;0.50;;;;;;;;;;1822356;76;26340;-47
2022/03/06 00:41:02;;;;;;;0.40;0.40;;;;;;;;;;1840522;77;26211;-46
2022/03/06 00:43:30;;;;;;;0.60;0.60;;;;;;;;;;1822484;77;25239;-48
2022/03/06 00:45:57;;;;;;;0.50;0.50;;;;;;;;;;1821274;77;26328;-46
2022/03/06 00:48:24;;;;;;;0.60;0.60;;;;;;;;;;1823602;77;26215;-47
2022/03/06 00:50:52;;;;;;;0.60;0.60;;;;;;;;;;1851805;77;27607;-46
2022/03/06 00:53:19;;;;;;;0.55;0.55;;;;;;;;;;1851894;77;26271;-52
2022/03/06 00:55:47;;;;;;;0.50;0.50;;;;;;;;;;1851492;77;26413;-48
2022/03/06 00:58:14;;;;;;;0.50;0.50;;;;;;;;;;1843211;76;26246;-48
2022/03/06 01:00:42;;;;;;;0.55;0.55;;;;;;;;;;1836593;78;26235;-48
2022/03/06 01:03:11;;;;;;;0.50;0.50;;;;;;;;;;1813043;76;26235;-46
2022/03/06 01:05:38;;;;;;;0.50;0.50;;;;;;;;;;1822775;78;26282;-47
2022/03/06 01:08:07;;;;;;;0.50;0.50;;;;;;;;;;1820937;78;26317;-48
2022/03/06 01:10:35;;;;;;;0.50;0.50;;;;;;;;;;1840964;78;26256;-46
2022/03/06 01:13:03;;;;;;;0.60;0.60;;;;;;;;;;1830122;76;26797;-46
2022/03/06 01:15:30;;;;;;;0.50;0.50;;;;;;;;;;1831187;77;26247;-48
2022/03/06 01:17:58;;;;;;;0.50;0.50;;;;;;;;;;1827099;78;26547;-48
2022/03/06 01:20:25;;;;;;;0.53;0.53;;;;;;;;;;1836191;77;26251;-48
2022/03/06 01:22:53;;;;;;;0.60;0.60;;;;;;;;;;1830176;78;26708;-47
2022/03/06 01:25:21;;;;;;;0.50;0.50;;;;;;;;;;1838723;76;26289;-48
2022/03/06 01:27:49;;;;;;;0.53;0.53;;;;;;;;;;1843052;76;26272;-47
2022/03/06 01:30:19;;;;;;;0.40;0.40;;;;;;;;;;1838440;78;26337;-49
2022/03/06 01:32:45;;;;;;;0.50;0.50;;;;;;;;;;1837173;78;26302;-46
2022/03/06 01:35:13;;;;;;;0.68;0.68;;;;;;;;;;1837265;78;26266;-46
2022/03/06 01:37:40;;;;;;;0.60;0.60;;;;;;;;;;1840095;78;26280;-46
2022/03/06 01:40:09;;;;;;;0.50;0.50;;;;;;;;;;1819920;77;26327;-46
2022/03/06 01:42:40;;;;;;;0.50;0.50;;;;;;;;;;1842459;78;26268;-48
2022/03/06 01:45:09;;;;;;;0.50;0.50;;;;;;;;;;1842045;78;26778;-48
2022/03/06 01:47:40;;;;;;;0.50;0.50;;;;;;;;;;1840494;78;26205;-47
2022/03/06 01:50:08;;;;;;;0.62;0.62;;;;;;;;;;1818571;78;26885;-47
2022/03/06 01:52:35;;;;;;;0.50;0.50;;;;;;;;;;1837863;78;26789;-48
2022/03/06 01:55:03;;;;;;;0.50;0.50;;;;;;;;;;1828396;78;26376;-47
2022/03/06 01:57:31;;;;;;;0.60;0.60;;;;;;;;;;1840662;76;26733;-46
2022/03/06 02:00:00;;;;;;;0.60;0.60;;;;;;;;;;1839480;76;26409;-46
2022/03/06 02:02:27;;;;;;;0.60;0.60;;;;;;;;;;1821187;78;26329;-46
2022/03/06 02:04:55;;;;;;;0.50;0.50;;;;;;;;;;1830619;76;26275;-50
2022/03/06 02:07:22;;;;;;;0.60;0.60;;;;;;;;;;1839504;78;25733;-50
2022/03/06 02:09:49;;;;;;;0.50;0.50;;;;;;;;;;1832470;78;26699;-48
2022/03/06 02:12:23;;;;;;;0.70;0.70;;;;;;;;;;1825867;76;26343;-47
2022/03/06 02:14:51;;;;;;;0.50;0.50;;;;;;;;;;1819780;78;26280;-48
2022/03/06 02:17:19;;;;;;;0.60;0.60;;;;;;;;;;1824154;76;26738;-46
2022/03/06 02:19:53;;;;;;;0.40;0.40;;;;;;;;;;1822457;78;26294;-46
2022/03/06 02:22:22;;;;;;;0.50;0.50;;;;;;;;;;1834732;78;26280;-46
2022/03/06 02:24:49;;;;;;;0.62;0.62;;;;;;;;;;1837903;76;26267;-47
2022/03/06 02:27:17;;;;;;;0.50;0.50;;;;;;;;;;1827791;78;26271;-47
2022/03/06 02:29:45;;;;;;;0.70;0.70;;;;;;;;;;1817174;78;26758;-46
2022/03/06 02:32:14;;;;;;;0.47;0.47;;;;;;;;;;1842676;78;26279;-48
2022/03/06 02:34:42;;;;;;;0.60;0.60;;;;;;;;;;1824350;78;26290;-47
2022/03/06 02:37:10;;;;;;;0.53;0.53;;;;;;;;;;1835004;78;26364;-47
2022/03/06 02:39:38;;;;;;;0.40;0.40;;;;;;;;;;1842418;78;26271;-49
2022/03/06 02:42:05;;;;;;;0.60;0.60;;;;;;;;;;1826218;78;26386;-48
2022/03/06 02:44:33;;;;;;;0.70;0.70;;;;;;;;;;1827360;78;26365;-48
2022/03/06 02:47:01;;;;;;;0.60;0.60;;;;;;;;;;1842226;78;26271;-48
2022/03/06 02:49:28;;;;;;;0.60;0.60;;;;;;;;;;1824120;78;26272;-50
2022/03/06 02:51:56;;;;;;;0.45;0.45;;;;;;;;;;1823498;78;26356;-46
2022/03/06 02:54:23;;;;;;;0.30;0.30;;;;;;;;;;1825136;78;26780;-46
2022/03/06 02:56:51;;;;;;;0.60;0.60;;;;;;;;;;1837091;78;26832;-46
2022/03/06 02:59:18;;;;;;;0.75;0.75;;;;;;;;;;1831707;77;26393;-49
2022/03/06 03:01:45;;;;;;;0.50;0.50;;;;;;;;;;1842878;78;26263;-48
2022/03/06 03:04:13;;;;;;;0.47;0.47;;;;;;;;;;1842794;78;26256;-48
2022/03/06 03:06:40;;;;;;;0.50;0.50;;;;;;;;;;1836382;78;26592;-46
2022/03/06 03:09:08;;;;;;;0.65;0.65;;;;;;;;;;1815480;78;26254;-49
2022/03/06 03:11:35;;;;;;;0.40;0.40;;;;;;;;;;1817804;78;26313;-46
2022/03/06 03:14:03;;;;;;;0.60;0.60;;;;;;;;;;1840559;76;26279;-47
2022/03/06 03:16:31;;;;;;;0.40;0.40;;;;;;;;;;1835011;76;26470;-49
2022/03/06 03:18:58;;;;;;;0.50;0.50;;;;;;;;;;1842954;78;25701;-50
2022/03/06 03:21:25;;;;;;;0.60;0.60;;;;;;;;;;1843055;78;25269;-49
2022/03/06 03:23:52;;;;;;;0.60;0.60;;;;;;;;;;1843112;78;26330;-47
2022/03/06 03:26:20;;;;;;;0.57;0.57;;;;;;;;;;1821213;78;26283;-49
2022/03/06 03:28:47;;;;;;;0.60;0.60;;;;;;;;;;1820790;76;26368;-49
2022/03/06 03:31:15;;;;;;;0.40;0.40;;;;;;;;;;1834818;78;26307;-47
2022/03/06 03:33:42;;;;;;;0.57;0.57;;;;;;;;;;1823468;78;26261;-47
2022/03/06 03:36:10;;;;;;;0.50;0.50;;;;;;;;;;1817861;78;26228;-46
2022/03/06 03:38:38;;;;;;;0.50;0.50;;;;;;;;;;1831108;78;26318;-48
2022/03/06 03:41:05;;;;;;;0.50;0.50;;;;;;;;;;1812782;78;26731;-47
2022/03/06 03:43:32;;;;;;;0.60;0.60;;;;;;;;;;1837948;78;26329;-46
2022/03/06 03:46:00;;;;;;;0.50;0.50;;;;;;;;;;1842669;78;26321;-50
2022/03/06 03:48:28;;;;;;;0.30;0.30;;;;;;;;;;1841315;78;26248;-48
2022/03/06 03:50:56;;;;;;;0.65;0.65;;;;;;;;;;1832140;78;26268;-48
2022/03/06 03:53:24;;;;;;;0.42;0.42;;;;;;;;;;1842780;78;26221;-47
2022/03/06 03:55:52;;;;;;;0.37;0.37;;;;;;;;;;1813399;78;26389;-47
2022/03/06 03:58:20;;;;;;;0.60;0.60;;;;;;;;;;1823800;78;26266;-48
2022/03/06 04:00:54;;;;;;;0.50;0.50;;;;;;;;;;1838011;77;26319;-47
2022/03/06 04:03:22;;;;;;;0.50;0.50;;;;;;;;;;1842044;78;26267;-46
2022/03/06 04:05:50;;;;;;;0.60;0.60;;;;;;;;;;1819669;78;27636;-48
2022/03/06 04:08:17;;;;;;;0.50;0.50;;;;;;;;;;1834361;78;26205;-48
2022/03/06 04:10:45;;;;;;;0.50;0.50;;;;;;;;;;1821189;78;26735;-48
2022/03/06 04:13:13;;;;;;;0.50;0.50;;;;;;;;;;1823578;78;26263;-47
2022/03/06 04:15:40;;;;;;;0.50;0.50;;;;;;;;;;1841364;78;27392;-50
2022/03/06 04:18:08;;;;;;;0.40;0.40;;;;;;;;;;1835467;77;26420;-49
2022/03/06 04:20:35;;;;;;;0.50;0.50;;;;;;;;;;1842493;78;26676;-50
2022/03/06 04:23:02;;;;;;;0.45;0.45;;;;;;;;;;1834472;78;25646;-46
2022/03/06 04:25:30;;;;;;;0.40;0.40;;;;;;;;;;1833552;78;26274;-48
2022/03/06 04:27:57;;;;;;;0.50;0.50;;;;;;;;;;1832240;78;26259;-46
2022/03/06 04:30:25;;;;;;;0.42;0.42;;;;;;;;;;1842557;78;26362;-47
2022/03/06 04:32:53;;;;;;;0.40;0.40;;;;;;;;;;1827265;78;26364;-49
2022/03/06 04:35:20;;;;;;;0.50;0.50;;;;;;;;;;1841313;76;26350;-45
2022/03/06 04:37:47;;;;;;;0.40;0.40;;;;;;;;;;1825825;78;26659;-45
2022/03/06 04:40:15;;;;;;;0.40;0.40;;;;;;;;;;1818210;78;26745;-46
2022/03/06 04:42:42;;;;;;;0.40;0.40;;;;;;;;;;1842277;78;26281;-45
2022/03/06 04:45:10;;;;;;;0.50;0.50;;;;;;;;;;1813853;78;26258;-45
2022/03/06 04:47:38;;;;;;;0.50;0.50;;;;;;;;;;1817291;78;26718;-47
2022/03/06 04:50:06;;;;;;;0.40;0.40;;;;;;;;;;1852019;76;26224;-47
2022/03/06 04:52:33;;;;;;;0.33;0.33;;;;;;;;;;1842469;78;27181;-47
2022/03/06 04:55:00;;;;;;;0.50;0.50;;;;;;;;;;1841106;78;26292;-47
2022/03/06 04:57:27;;;;;;;0.40;0.40;;;;;;;;;;1826515;78;26251;-45
2022/03/06 04:59:55;;;;;;;0.40;0.40;;;;;;;;;;1826611;77;26372;-45
2022/03/06 05:02:22;;;;;;;0.35;0.35;;;;;;;;;;1851713;77;26263;-47
2022/03/06 05:04:50;;;;;;;0.40;0.40;;;;;;;;;;1850238;76;26341;-45
2022/03/06 05:07:18;;;;;;;0.30;0.30;;;;;;;;;;1849633;76;26295;-46
2022/03/06 05:09:45;;;;;;;0.40;0.40;;;;;;;;;;1850173;76;26199;-46
2022/03/06 05:12:12;;;;;;;0.60;0.60;;;;;;;;;;1847104;76;26279;-46
2022/03/06 05:14:40;;;;;;;0.35;0.35;;;;;;;;;;1829231;76;26306;-47
2022/03/06 05:17:07;;;;;;;0.50;0.50;;;;;;;;;;1850877;77;26333;-47
2022/03/06 05:19:35;;;;;;;0.42;0.42;;;;;;;;;;1843572;76;26294;-47
2022/03/06 05:22:02;;;;;;;0.42;0.42;;;;;;;;;;1835058;76;26256;-47
2022/03/06 05:24:29;;;;;;;0.40;0.40;;;;;;;;;;1851478;77;26267;-45
2022/03/06 05:26:57;;;;;;;0.40;0.40;;;;;;;;;;1850738;77;26381;-46
2022/03/06 05:29:24;;;;;;;0.50;0.50;;;;;;;;;;1848805;76;26700;-48
2022/03/06 05:31:52;;;;;;;0.50;0.50;;;;;;;;;;1832690;76;26286;-48
2022/03/06 05:34:19;;;;;;;0.40;0.40;;;;;;;;;;1846989;76;26329;-46
2022/03/06 05:36:46;;;;;;;0.37;0.37;;;;;;;;;;1842370;76;26247;-47
2022/03/06 05:39:13;;;;;;;0.40;0.40;;;;;;;;;;1848688;76;26252;-47
2022/03/06 05:41:41;;;;;;;0.40;0.40;;;;;;;;;;1851736;76;26216;-48
2022/03/06 05:44:08;;;;;;;0.47;0.47;;;;;;;;;;1851413;77;26692;-47
2022/03/06 05:46:36;;;;;;;0.53;0.53;;;;;;;;;;1835516;77;25788;-47
2022/03/06 05:49:12;;;;;;;0.53;0.53;;;;;;;;;;1841287;77;26807;-46
2022/03/06 05:51:32;;;;;;;0.40;0.40;;;;;;;;;;1836999;77;26230;-48
2022/03/06 05:53:59;;;;;;;0.33;0.33;;;;;;;;;;1845036;76;26321;-46
2022/03/06 05:56:27;;;;;;;0.45;0.45;;;;;;;;;;1851434;76;26330;-47
2022/03/06 05:58:54;;;;;;;0.53;0.53;;;;;;;;;;1833966;76;26325;-47
2022/03/06 06:01:21;;;;;;;0.37;0.37;;;;;;;;;;1822621;76;26418;-46
2022/03/06 06:03:49;;;;;;;0.40;0.40;;;;;;;;;;1823905;78;26208;-46
2022/03/06 06:06:17;;;;;;;0.42;0.42;;;;;;;;;;1833012;78;26881;-46
2022/03/06 06:08:44;;;;;;;0.50;0.50;;;;;;;;;;1823776;78;26273;-47
2022/03/06 06:11:11;;;;;;;0.42;0.42;;;;;;;;;;1832613;78;26275;-47
2022/03/06 06:13:38;;;;;;;0.40;0.40;;;;;;;;;;1822936;78;26326;-46
2022/03/06 06:16:06;;;;;;;0.45;0.45;;;;;;;;;;1834168;78;27302;-47
2022/03/06 06:18:33;;;;;;;0.42;0.42;;;;;;;;;;1824812;78;26263;-47
2022/03/06 06:21:00;;;;;;;0.30;0.30;;;;;;;;;;1842391;78;26260;-49
2022/03/06 06:23:27;;;;;;;0.42;0.42;;;;;;;;;;1816463;78;26293;-47
2022/03/06 06:25:55;;;;;;;0.30;0.30;;;;;;;;;;1841784;78;26337;-47
2022/03/06 06:28:22;;;;;;;0.40;0.40;;;;;;;;;;1838736;78;26310;-47
2022/03/06 06:30:49;;;;;;;0.30;0.30;;;;;;;;;;1812449;78;26223;-49
2022/03/06 06:33:16;;;;;;;0.40;0.40;;;;;;;;;;1821483;78;26279;-46
2022/03/06 06:35:44;;;;;;;0.50;0.50;;;;;;;;;;1837857;78;26211;-48
2022/03/06 06:38:11;;;;;;;0.50;0.50;;;;;;;;;;1842659;78;26255;-48
2022/03/06 06:40:39;;;;;;;0.57;0.50;;;;;;;;;;1833615;78;26298;-46
2022/03/06 06:43:06;;;;;;;0.30;0.30;;;;;;;;;;1821686;78;26328;-48
2022/03/06 06:45:33;;;;;;;0.30;0.30;;;;;;;;;;1824523;78;26275;-46
2022/03/06 06:48:01;;;;;;;0.50;0.50;;;;;;;;;;1826283;78;26597;-49
2022/03/06 06:50:28;;;;;;;0.30;0.30;;;;;;;;;;1831480;76;26342;-46
2022/03/06 06:52:56;;;;;;;0.30;0.30;;;;;;;;;;1842613;78;26561;-47
2022/03/06 06:55:23;;;;;;;0.40;0.40;;;;;;;;;;1838983;78;26436;-48
2022/03/06 06:57:50;;;;;;;0.42;0.42;;;;;;;;;;1831260;78;26678;-47
2022/03/06 07:00:17;;;;;;;0.40;0.40;;;;;;;;;;1838522;77;26824;-48
2022/03/06 07:02:46;;;;;;;0.20;0.20;;;;;;;;;;1823879;78;26675;-47
2022/03/06 07:05:14;;;;;;;0.37;0.37;;;;;;;;;;1833914;78;26281;-48
2022/03/06 07:07:41;;;;;;;0.37;0.37;;;;;;;;;;1841166;78;26228;-47
2022/03/06 07:10:09;;;;;;;0.40;0.40;;;;;;;;;;1828385;78;26259;-46
2022/03/06 07:12:47;;;;;;;0.50;0.50;;;;;;;;;;1837507;78;26781;-47
2022/03/06 07:15:15;;;;;;;0.30;0.30;;;;;;;;;;1820476;78;26367;-47
2022/03/06 07:17:42;;;;;;;0.20;0.20;;;;;;;;;;1817339;78;25692;-47
2022/03/06 07:20:10;;;;;;;0.30;0.30;;;;;;;;;;1826744;78;26302;-47
2022/03/06 07:22:38;;;;;;;0.28;0.28;;;;;;;;;;1840871;76;25626;-47
2022/03/06 07:25:06;;;;;;;0.30;0.30;;;;;;;;;;1842106;76;26263;-46
2022/03/06 07:27:33;;;;;;;0.40;0.40;;;;;;;;;;1842746;78;26645;-46
2022/03/06 07:30:00;;;;;;;0.40;0.40;;;;;;;;;;1824406;77;26264;-49
2022/03/06 07:32:27;;;;;;;0.40;0.40;;;;;;;;;;1838267;78;26244;-47
2022/03/06 07:34:55;;;;;;;0.30;0.30;;;;;;;;;;1824331;78;26333;-45
2022/03/06 07:37:22;;;;;;;0.30;0.30;;;;;;;;;;1824891;78;26867;-46
2022/03/06 07:39:49;;;;;;;0.23;0.23;;;;;;;;;;1842417;78;26881;-47
2022/03/06 07:42:17;;;;;;;0.30;0.30;;;;;;;;;;1840308;78;26720;-47
2022/03/06 07:44:44;;;;;;;0.30;0.30;;;;;;;;;;1838203;78;26708;-48
2022/03/06 07:47:11;;;;;;;0.33;0.33;;;;;;;;;;1831787;78;26282;-46
2022/03/06 07:49:38;;;;;;;0.35;0.35;;;;;;;;;;1832282;76;26337;-46
2022/03/06 07:52:06;;;;;;;0.30;0.30;;;;;;;;;;1841083;78;26263;-47
2022/03/06 07:54:34;;;;;;;0.40;0.40;;;;;;;;;;1842220;78;26295;-46
2022/03/06 07:57:01;;;;;;;0.30;0.30;;;;;;;;;;1837199;76;26451;-48
2022/03/06 07:59:28;;;;;;;0.30;0.30;;;;;;;;;;1830937;78;26762;-48
2022/03/06 08:01:55;;;;;;;0.20;0.20;;;;;;;;;;1827556;76;26813;-47
2022/03/06 08:04:23;;;;;;;0.30;0.30;;;;;;;;;;1841193;76;26259;-50
2022/03/06 08:06:50;;;;;;;0.30;0.30;;;;;;;;;;1852571;76;26219;-46
2022/03/06 08:09:17;;;;;;;0.30;0.30;;;;;;;;;;1835795;77;26710;-46
2022/03/06 08:11:45;;;;;;;0.20;0.20;;;;;;;;;;1854327;76;26648;-46
2022/03/06 08:14:12;;;;;;;0.80;0.37;;;;;;;;;;1852336;76;26706;-47
2022/03/06 08:16:39;;;;;;;0.30;0.30;;;;;;;;;;1830213;77;26340;-49
2022/03/06 08:19:07;;;;;;;0.40;0.30;;;;;;;;;;1824542;77;26363;-46
2022/03/06 08:21:34;;;;;;;0.30;0.30;;;;;;;;;;1842203;76;26285;-48
2022/03/06 08:24:01;;;;;;;0.25;0.25;;;;;;;;;;1824481;77;26262;-49
2022/03/06 08:26:29;;;;;;;0.30;0.30;;;;;;;;;;1824180;77;26348;-47
2022/03/06 08:28:56;;;;;;;0.20;0.20;;;;;;;;;;1824392;77;26922;-46
2022/03/06 08:31:23;;;;;;;0.30;0.30;;;;;;;;;;1831191;77;26656;-49
2022/03/06 08:33:52;;;;;;;0.30;0.30;;;;;;;;;;1826573;76;26674;-47
2022/03/06 08:36:19;;;;;;;0.30;0.30;;;;;;;;;;1859731;76;26293;-48
2022/03/06 08:38:47;;;;;;;0.40;0.40;;;;;;;;;;1854588;76;26740;-47
2022/03/06 08:41:14;;;;;;;0.30;0.30;;;;;;;;;;1844019;76;26341;-49
2022/03/06 08:43:41;;;;;;;0.25;0.25;;;;;;;;;;1836171;76;26325;-47
2022/03/06 08:46:08;;;;;;;0.23;0.23;;;;;;;;;;1852711;76;26286;-48
2022/03/06 08:48:37;;;;;;;0.20;0.20;;;;;;;;;;1845745;76;26781;-47
2022/03/06 08:51:05;;;;;;;0.28;0.28;;;;;;;;;;1850385;76;26283;-49
2022/03/06 08:53:33;;;;;;;0.28;0.28;;;;;;;;;;1855452;76;26212;-46
2022/03/06 08:56:01;;;;;;;0.35;0.35;;;;;;;;;;1845424;76;26357;-49
2022/03/06 08:58:28;;;;;;;0.20;0.20;;;;;;;;;;1838737;76;26258;-46
2022/03/06 09:00:56;;;;;;;0.30;0.30;;;;;;;;;;1855226;76;26275;-46
2022/03/06 09:03:23;;;;;;;0.28;0.28;;;;;;;;;;1852001;76;26295;-46
2022/03/06 09:05:50;;;;;;;0.80;0.30;;;;;;;;;;1846800;76;26322;-47
2022/03/06 09:08:18;;;;;;;0.30;0.30;;;;;;;;;;1851706;76;26228;-46
2022/03/06 09:10:45;;;;;;;0.30;0.30;;;;;;;;;;1840481;77;26333;-48
2022/03/06 09:13:12;;;;;;;0.20;0.20;;;;;;;;;;1846880;76;26262;-49
2022/03/06 09:15:40;;;;;;;0.20;0.20;;;;;;;;;;1843899;77;26335;-49
2022/03/06 09:18:07;;;;;;;0.23;0.23;;;;;;;;;;1831818;76;26267;-48
2022/03/06 09:20:35;;;;;;;0.30;0.30;;;;;;;;;;1837984;76;26349;-47
2022/03/06 09:23:03;;;;;;;0.40;0.40;;;;;;;;;;1861856;76;26290;-48
2022/03/06 09:25:32;;;;;;;0.25;0.25;;;;;;;;;;1836733;76;26283;-49
2022/03/06 09:28:03;;;;;;;0.20;0.20;;;;;;;;;;1849434;76;26329;-46
2022/03/06 09:30:30;;;;;;;0.20;0.20;;;;;;;;;;1850068;77;26227;-47
2022/03/06 09:32:58;;;;;;;0.25;0.25;;;;;;;;;;1847091;76;26280;-47
2022/03/06 09:35:25;;;;;;;0.10;0.10;;;;;;;;;;1843200;76;26369;-49
2022/03/06 09:37:54;;;;;;;0.28;0.28;;;;;;;;;;1798472;77;26243;-48
2022/03/06 09:40:22;;;;;;;0.20;0.20;;;;;;;;;;1850435;76;26348;-47
2022/03/06 09:42:49;;;;;;;0.20;0.20;;;;;;;;;;1837066;76;26306;-48
2022/03/06 09:45:16;;;;;;;0.20;0.20;;;;;;;;;;1835708;76;26342;-49
2022/03/06 09:47:45;;;;;;;0.10;0.10;;;;;;;;;;1845028;76;26812;-48
2022/03/06 09:50:13;;;;;;;0.20;0.20;;;;;;;;;;1823782;76;25789;-46
2022/03/06 09:52:41;;;;;;;0.30;0.30;;;;;;;;;;1846062;76;26364;-47
2022/03/06 09:55:09;;;;;;;0.30;0.30;;;;;;;;;;1851186;76;26307;-46
2022/03/06 09:57:36;;;;;;;0.15;0.15;;;;;;;;;;1848229;77;26714;-49
2022/03/06 10:00:05;;;;;;;0.20;0.20;;;;;;;;;;1841780;76;26720;-47
2022/03/06 10:02:34;;;;;;;0.20;0.20;;;;;;;;;;1839251;76;26244;-46
2022/03/06 10:05:01;;;;;;;0.20;0.20;;;;;;;;;;1817743;78;26249;-51
2022/03/06 10:07:29;;;;;;;0.20;0.20;;;;;;;;;;1836355;77;26857;-46
2022/03/06 10:09:56;;;;;;;0.20;0.20;;;;;;;;;;1834920;78;26695;-46
2022/03/06 10:12:31;;;;;;;0.20;0.20;;;;;;;;;;1818119;78;26251;-49
2022/03/06 10:14:59;;;;;;;0.20;0.20;;;;;;;;;;1833383;78;26381;-46
2022/03/06 10:17:32;;;;;;;0.20;0.20;;;;;;;;;;1838871;78;26268;-46
2022/03/06 10:20:04;;;;;;;0.28;0.28;;;;;;;;;;1822010;78;26279;-46
2022/03/06 10:22:33;;;;;;;0.20;0.20;;;;;;;;;;1837674;78;26683;-46
2022/03/06 10:25:02;;;;;;;0.20;0.20;;;;;;;;;;1841898;78;26292;-47
2022/03/06 10:27:46;;;;;;;0.28;0.28;;;;;;;;;;1836682;78;26270;-49
2022/03/06 10:30:21;;;;;;;0.25;0.25;;;;;;;;;;1834609;76;26648;-49
2022/03/06 10:32:48;;;;;;;0.30;0.30;;;;;;;;;;1818946;78;26363;-49
2022/03/06 10:35:15;;;;;;;0.20;0.20;;;;;;;;;;1831876;78;26231;-46
2022/03/06 10:37:42;;;;;;;0.28;0.28;;;;;;;;;;1829396;78;26278;-47
2022/03/06 10:40:14;;;;;;;0.10;0.10;;;;;;;;;;1861534;76;26779;-50
2022/03/06 10:42:39;;;;;;;0.25;0.25;;;;;;;;;;1830063;78;26223;-48
2022/03/06 10:45:07;;;;;;;0.10;0.10;;;;;;;;;;1830137;78;26263;-47
2022/03/06 10:47:47;;;;;;;0.17;0.17;;;;;;;;;;1829524;78;26239;-46
2022/03/06 10:50:16;;;;;;;0.30;0.30;;;;;;;;;;1831639;78;26693;-47
2022/03/06 10:52:43;;;;;;;0.20;0.20;;;;;;;;;;1834718;78;26330;-49
2022/03/06 10:55:10;;;;;;;0.20;0.20;;;;;;;;;;1831806;78;26365;-52
2022/03/06 10:57:40;;;;;;;0.20;0.20;;;;;;;;;;1842665;78;26228;-48
2022/03/06 11:00:08;;;;;;;0.17;0.17;;;;;;;;;;1841601;78;26870;-48
2022/03/06 11:02:36;;;;;;;0.30;0.30;;;;;;;;;;1838494;77;26775;-46
2022/03/06 11:05:05;;;;;;;0.20;0.20;;;;;;;;;;1817232;78;26355;-49
2022/03/06 11:07:33;;;;;;;0.10;0.10;;;;;;;;;;1836658;77;27030;-46
2022/03/06 11:10:01;;;;;;;0.20;0.20;;;;;;;;;;1820910;78;26290;-48
2022/03/06 11:12:30;;;;;;;0.20;0.20;;;;;;;;;;1822779;78;26672;-47
2022/03/06 11:14:59;;;;;;;0.17;0.17;;;;;;;;;;1826910;78;26292;-46
2022/03/06 11:17:26;;;;;;;0.20;0.20;;;;;;;;;;1812870;78;26307;-46
2022/03/06 11:19:54;;;;;;;0.30;0.30;;;;;;;;;;1835719;78;26369;-47
2022/03/06 11:22:22;;;;;;;0.17;0.17;;;;;;;;;;1843376;78;26331;-46
2022/03/06 11:24:54;;;;;;;0.20;0.20;;;;;;;;;;1820520;78;26770;-49
2022/03/06 11:27:38;;;;;;;0.20;0.20;;;;;;;;;;1838476;78;26307;-46
2022/03/06 11:30:06;;;;;;;0.20;0.20;;;;;;;;;;1842105;78;26389;-46
2022/03/06 11:32:35;;;;;;;0.20;0.20;;;;;;;;;;1840749;78;26256;-46
2022/03/06 11:35:10;;;;;;;0.10;0.10;;;;;;;;;;1822410;78;26318;-49
2022/03/06 11:37:54;;;;;;;0.10;0.10;;;;;;;;;;1835540;78;26330;-47
2022/03/06 11:40:38;;;;;;;0.10;0.10;;;;;;;;;;1844610;76;26314;-46
2022/03/06 11:43:06;;;;;;;0.35;0.28;;;;;;;;;;1812031;78;26762;-48
2022/03/06 11:45:53;;;;;;;0.20;0.20;;;;;;;;;;1831351;78;26884;-47
2022/03/06 11:48:24;;;;;;;0.23;0.23;;;;;;;;;;1829126;78;26305;-48
2022/03/06 11:50:53;;;;;;;0.28;0.28;;;;;;;;;;1839391;78;26239;-49
2022/03/06 11:53:21;;;;;;;0.20;0.20;;;;;;;;;;1831900;78;26329;-47
2022/03/06 11:55:48;;;;;;;0.20;0.20;;;;;;;;;;1823451;76;26317;-49
2022/03/06 11:58:17;;;;;;;0.25;0.25;;;;;;;;;;1831330;76;26273;-46
2022/03/06 12:00:48;;;;;;;0.30;0.30;;;;;;;;;;1822175;76;26697;-46
2022/03/06 12:03:15;;;;;;;0.25;0.20;;;;;;;;;;1824157;77;27191;-47
2022/03/06 12:05:47;;;;;;;0.20;0.20;;;;;;;;;;1824221;77;26234;-47
2022/03/06 12:08:16;;;;;;;0.10;0.10;;;;;;;;;;1829724;77;26326;-48
2022/03/06 12:10:44;;;;;;;0.08;0.08;;;;;;;;;;1845959;77;26279;-47
2022/03/06 12:13:18;;;;;;;0.35;0.10;;;;;;;;;;1841523;77;26293;-49
2022/03/06 12:15:59;;;;;;;0.25;0.25;;;;;;;;;;1848799;77;26248;-46
2022/03/06 12:18:26;;;;;;;0.13;0.13;;;;;;;;;;1831680;77;26373;-51
2022/03/06 12:20:54;;;;;;;0.20;0.20;;;;;;;;;;1819346;77;26318;-48
2022/03/06 12:23:23;;;;;;;0.30;0.30;;;;;;;;;;1837736;77;26282;-48
2022/03/06 12:25:52;;;;;;;0.20;0.20;;;;;;;;;;1818127;77;26757;-47
2022/03/06 12:28:20;;;;;;;0.20;0.20;;;;;;;;;;1818594;77;26789;-47
2022/03/06 12:30:48;;;;;;;0.10;0.10;;;;;;;;;;1827237;77;26836;-49
2022/03/06 12:33:26;;;;;;;0.10;0.10;;;;;;;;;;1847489;77;26263;-47
2022/03/06 12:36:00;;;;;;;0.28;0.28;;;;;;;;;;1830246;77;26239;-46
2022/03/06 12:38:28;;;;;;;0.20;0.20;;;;;;;;;;1837279;77;26303;-47
2022/03/06 12:40:56;;;;;;;0.20;0.20;;;;;;;;;;1830244;77;26256;-49
2022/03/06 12:43:25;;;;;;;0.20;0.20;;;;;;;;;;1845717;77;26361;-49
2022/03/06 12:45:52;;;;;;;0.20;0.20;;;;;;;;;;1836747;77;26248;-47
2022/03/06 12:48:22;;;;;;;0.20;0.20;;;;;;;;;;1829940;77;26262;-46
2022/03/06 12:50:49;;;;;;;0.20;0.20;;;;;;;;;;1848884;77;26339;-48
2022/03/06 12:53:17;;;;;;;0.20;0.20;;;;;;;;;;1848469;77;26296;-51
2022/03/06 12:55:45;;;;;;;0.10;0.10;;;;;;;;;;1840116;77;28054;-48
2022/03/06 12:58:12;;;;;;;0.20;0.20;;;;;;;;;;1848989;77;26274;-48
2022/03/06 13:00:39;;;;;;;0.10;0.10;;;;;;;;;;1848921;76;26334;-49
2022/03/06 13:03:07;;;;;;;0.13;0.13;;;;;;;;;;1839585;77;26751;-48
2022/03/06 13:05:36;;;;;;;0.17;0.17;;;;;;;;;;1836878;76;26294;-46
2022/03/06 13:08:04;;;;;;;0.40;0.40;;;;;;;;;;1829959;77;26352;-50
2022/03/06 13:10:31;;;;;;;0.20;0.20;;;;;;;;;;1835460;76;26281;-48
2022/03/06 13:12:59;;;;;;;0.10;0.10;;;;;;;;;;1840070;77;26264;-48
2022/03/06 13:15:28;;;;;;;0.20;0.20;;;;;;;;;;1842625;76;26276;-47
2022/03/06 13:18:00;;;;;;;0.20;0.20;;;;;;;;;;1845440;77;26731;-49
2022/03/06 13:20:31;;;;;;;0.20;0.20;;;;;;;;;;1830533;77;26333;-47
2022/03/06 13:22:58;;;;;;;0.13;0.13;;;;;;;;;;1842889;77;26884;-46
2022/03/06 13:25:26;;;;;;;0.20;0.20;;;;;;;;;;1830568;77;26741;-50
2022/03/06 13:27:53;;;;;;;0.30;0.30;;;;;;;;;;1831151;77;26337;-47
2022/03/06 13:30:22;;;;;;;0.20;0.20;;;;;;;;;;1842758;77;26271;-47
2022/03/06 13:32:50;;;;;;;0.20;0.20;;;;;;;;;;1836780;77;26263;-48
2022/03/06 13:35:28;;;;;;;0.20;0.20;;;;;;;;;;1841332;77;25715;-49
2022/03/06 13:38:00;;;;;;;0.20;0.20;;;;;;;;;;1840916;77;26236;-48
2022/03/06 13:40:28;;;;;;;0.20;0.20;;;;;;;;;;1818365;77;26278;-46
2022/03/06 13:42:57;;;;;;;0.30;0.30;;;;;;;;;;1848784;77;26235;-47
2022/03/06 13:45:24;;;;;;;0.17;0.17;;;;;;;;;;1840922;77;26665;-49
2022/03/06 13:47:53;;;;;;;0.20;0.20;;;;;;;;;;1837782;77;26213;-49
2022/03/06 13:50:22;;;;;;;0.10;0.10;;;;;;;;;;1849137;77;26279;-48
2022/03/06 13:52:50;;;;;;;0.20;0.20;;;;;;;;;;1828505;77;26672;-48
2022/03/06 13:55:18;;;;;;;0.00;0.00;;;;;;;;;;1848753;77;26355;-46
2022/03/06 13:57:59;;;;;;;0.10;0.10;;;;;;;;;;1830031;77;26279;-47
2022/03/06 14:00:27;;;;;;;0.40;0.40;;;;;;;;;;1839683;77;26262;-48
2022/03/06 14:02:59;;;;;;;0.13;0.13;;;;;;;;;;1837344;77;26232;-47
2022/03/06 14:05:28;;;;;;;0.10;0.10;;;;;;;;;;1824365;76;26753;-47
2022/03/06 14:07:55;;;;;;;0.15;0.15;;;;;;;;;;1848394;76;26263;-48
2022/03/06 14:10:24;;;;;;;0.10;0.10;;;;;;;;;;1841388;76;26358;-47
2022/03/06 14:12:51;;;;;;;0.13;0.13;;;;;;;;;;1841232;76;26727;-49
2022/03/06 14:15:25;;;;;;;0.10;0.10;;;;;;;;;;1850693;76;27338;-49
2022/03/06 14:17:53;;;;;;;0.10;0.10;;;;;;;;;;1850983;76;26285;-47
2022/03/06 14:20:20;;;;;;;0.25;0.20;;;;;;;;;;1842626;76;26325;-49
2022/03/06 14:22:48;;;;;;;0.10;0.10;;;;;;;;;;1850785;76;26379;-47
2022/03/06 14:25:15;;;;;;;0.10;0.10;;;;;;;;;;1826626;76;26369;-47
2022/03/06 14:27:42;;;;;;;0.20;0.20;;;;;;;;;;1829902;77;26285;-46
2022/03/06 14:30:10;;;;;;;0.30;0.30;;;;;;;;;;1848996;76;26719;-47
2022/03/06 14:32:38;;;;;;;0.10;0.10;;;;;;;;;;1855246;76;25656;-48
2022/03/06 14:35:06;;;;;;;0.10;0.10;;;;;;;;;;1844789;76;26297;-46
2022/03/06 14:37:33;;;;;;;0.17;0.17;;;;;;;;;;1843712;77;26668;-49
2022/03/06 14:40:00;;;;;;;0.10;0.10;;;;;;;;;;1824269;76;26210;-48
2022/03/06 14:42:28;;;;;;;0.10;0.10;;;;;;;;;;1840117;76;26286;-50
2022/03/06 14:44:55;;;;;;;1.12;0.10;;;;;;;;;;1824438;76;26281;-47
2022/03/06 14:47:22;;;;;;;0.08;0.08;;;;;;;;;;1838950;77;27468;-45
2022/03/06 14:49:50;;;;;;;0.10;0.10;;;;;;;;;;1847868;76;26675;-46